sensor_id;sensor_type;location;lat;lon;timestamp;temperature;humidity
6581;DHT22;3324;50.796;7.228;2023-04-25T00:00:04;9.20;99.90
6581;DHT22;3324;50.796;7.228;2023-04-25T00:02:32;9.20;99.90
6581;DHT22;3324;50.796;7.228;2023-04-25T00:05:00;9.20;99.90
6581;DHT22;3324;50.796;7.228;2023-04-25T00:07:27;9.10;99.90
6581;DHT22;3324;50.796;7.228;2023-04-25T00:09:52;9.10;99.90
6581;DHT22;3324;50.796;7.228;2023-04-25T00:12:18;9.10;99.90
6581;DHT22;3324;50.796;7.228;2023-04-25T00:14:44;9.10;99.90
6581;DHT22;3324;50.796;7.228;2023-04-25T00:17:10;9.00;99.90
6581;DHT22;3324;50.796;7.228;2023-04-25T00:19:36;9.00;99.90
6581;DHT22;3324;50.796;7.228;2023-04-25T00:22:03;9.00;99.90
6581;DHT22;3324;50.796;7.228;2023-04-25T00:24:29;9.00;99.90
6581;DHT22;3324;50.796;7.228;2023-04-25T00:26:55;8.90;99.90
6581;DHT22;3324;50.796;7.228;2023-04-25T00:29:20;8.90;99.90
6581;DHT22;3324;50.796;7.228;2023-04-25T00:31:46;8.90;99.90
6581;DHT22;3324;50.796;7.228;2023-04-25T00:34:11;8.90;99.90
6581;DHT22;3324;50.796;7.228;2023-04-25T00:36:37;8.90;99.90
6581;DHT22;3324;50.796;7.228;2023-04-25T00:39:03;8.90;99.90
6581;DHT22;3324;50.796;7.228;2023-04-25T00:41:30;8.90;99.90
6581;DHT22;3324;50.796;7.228;2023-04-25T00:43:56;8.80;99.90
6581;DHT22;3324;50.796;7.228;2023-04-25T00:46:22;8.80;99.90
6581;DHT22;3324;50.796;7.228;2023-04-25T00:48:47;8.80;99.90
6581;DHT22;3324;50.796;7.228;2023-04-25T00:51:16;8.80;99.90
6581;DHT22;3324;50.796;7.228;2023-04-25T00:53:44;8.80;99.90
6581;DHT22;3324;50.796;7.228;2023-04-25T00:56:10;8.70;99.90
6581;DHT22;3324;50.796;7.228;2023-04-25T00:58:36;8.70;99.90
6581;DHT22;3324;50.796;7.228;2023-04-25T01:01:02;8.70;99.90
6581;DHT22;3324;50.796;7.228;2023-04-25T01:03:28;8.60;99.90
6581;DHT22;3324;50.796;7.228;2023-04-25T01:05:55;8.60;99.90
6581;DHT22;3324;50.796;7.228;2023-04-25T01:08:24;8.60;99.90
6581;DHT22;3324;50.796;7.228;2023-04-25T01:10:52;8.60;99.90
6581;DHT22;3324;50.796;7.228;2023-04-25T01:13:18;8.60;99.90
6581;DHT22;3324;50.796;7.228;2023-04-25T01:15:44;8.60;99.90
6581;DHT22;3324;50.796;7.228;2023-04-25T01:18:10;8.60;99.90
6581;DHT22;3324;50.796;7.228;2023-04-25T01:20:37;8.50;99.90
6581;DHT22;3324;50.796;7.228;2023-04-25T01:23:04;8.50;99.90
6581;DHT22;3324;50.796;7.228;2023-04-25T01:25:30;8.50;99.90
6581;DHT22;3324;50.796;7.228;2023-04-25T01:27:57;8.40;99.90
6581;DHT22;3324;50.796;7.228;2023-04-25T01:30:24;8.30;99.90
6581;DHT22;3324;50.796;7.228;2023-04-25T01:32:51;8.20;99.90
6581;DHT22;3324;50.796;7.228;2023-04-25T01:35:17;8.20;99.90
6581;DHT22;3324;50.796;7.228;2023-04-25T01:37:43;8.20;99.90
6581;DHT22;3324;50.796;7.228;2023-04-25T01:40:10;8.30;99.90
6581;DHT22;3324;50.796;7.228;2023-04-25T01:42:38;8.20;99.90
6581;DHT22;3324;50.796;7.228;2023-04-25T01:45:05;8.20;99.90
6581;DHT22;3324;50.796;7.228;2023-04-25T01:47:32;8.10;99.90
6581;DHT22;3324;50.796;7.228;2023-04-25T01:49:58;8.10;99.90
6581;DHT22;3324;50.796;7.228;2023-04-25T01:52:23;8.10;99.90
6581;DHT22;3324;50.796;7.228;2023-04-25T01:54:50;8.10;99.90
6581;DHT22;3324;50.796;7.228;2023-04-25T01:57:16;8.20;99.90
6581;DHT22;3324;50.796;7.228;2023-04-25T01:59:42;8.10;99.90
6581;DHT22;3324;50.796;7.228;2023-04-25T02:02:08;8.10;99.90
6581;DHT22;3324;50.796;7.228;2023-04-25T02:04:34;8.10;99.90
6581;DHT22;3324;50.796;7.228;2023-04-25T02:06:59;8.00;99.90
6581;DHT22;3324;50.796;7.228;2023-04-25T02:09:25;7.90;99.90
6581;DHT22;3324;50.796;7.228;2023-04-25T02:11:50;7.90;99.90
6581;DHT22;3324;50.796;7.228;2023-04-25T02:14:16;7.90;99.90
6581;DHT22;3324;50.796;7.228;2023-04-25T02:16:42;7.90;99.90
6581;DHT22;3324;50.796;7.228;2023-04-25T02:19:09;7.90;99.90
6581;DHT22;3324;50.796;7.228;2023-04-25T02:21:36;7.90;99.90
6581;DHT22;3324;50.796;7.228;2023-04-25T02:24:02;7.90;99.90
6581;DHT22;3324;50.796;7.228;2023-04-25T02:26:28;7.90;99.90
6581;DHT22;3324;50.796;7.228;2023-04-25T02:28:54;7.90;99.90
6581;DHT22;3324;50.796;7.228;2023-04-25T02:31:20;8.00;99.90
6581;DHT22;3324;50.796;7.228;2023-04-25T02:33:45;7.90;99.90
6581;DHT22;3324;50.796;7.228;2023-04-25T02:36:11;8.00;99.90
6581;DHT22;3324;50.796;7.228;2023-04-25T02:38:37;8.00;99.90
6581;DHT22;3324;50.796;7.228;2023-04-25T02:41:02;8.00;99.90
6581;DHT22;3324;50.796;7.228;2023-04-25T02:43:28;8.00;99.90
6581;DHT22;3324;50.796;7.228;2023-04-25T02:45:53;8.00;99.90
6581;DHT22;3324;50.796;7.228;2023-04-25T02:48:19;8.10;99.90
6581;DHT22;3324;50.796;7.228;2023-04-25T02:50:45;8.10;99.90
6581;DHT22;3324;50.796;7.228;2023-04-25T02:53:10;8.00;99.90
6581;DHT22;3324;50.796;7.228;2023-04-25T02:55:36;8.10;99.90
6581;DHT22;3324;50.796;7.228;2023-04-25T02:58:02;8.10;99.90
6581;DHT22;3324;50.796;7.228;2023-04-25T03:00:27;8.00;99.90
6581;DHT22;3324;50.796;7.228;2023-04-25T03:02:53;8.00;99.90
6581;DHT22;3324;50.796;7.228;2023-04-25T03:05:19;8.00;99.90
6581;DHT22;3324;50.796;7.228;2023-04-25T03:07:44;8.00;99.90
6581;DHT22;3324;50.796;7.228;2023-04-25T03:10:11;8.00;99.90
6581;DHT22;3324;50.796;7.228;2023-04-25T03:12:36;7.90;99.90
6581;DHT22;3324;50.796;7.228;2023-04-25T03:15:03;8.00;99.90
6581;DHT22;3324;50.796;7.228;2023-04-25T03:17:29;7.90;99.90
6581;DHT22;3324;50.796;7.228;2023-04-25T03:19:55;7.90;99.90
6581;DHT22;3324;50.796;7.228;2023-04-25T03:22:21;7.90;99.90
6581;DHT22;3324;50.796;7.228;2023-04-25T03:24:47;7.80;99.90
6581;DHT22;3324;50.796;7.228;2023-04-25T03:27:13;7.80;99.90
6581;DHT22;3324;50.796;7.228;2023-04-25T03:29:38;7.70;99.90
6581;DHT22;3324;50.796;7.228;2023-04-25T03:32:04;7.70;99.90
6581;DHT22;3324;50.796;7.228;2023-04-25T03:34:30;7.70;99.90
6581;DHT22;3324;50.796;7.228;2023-04-25T03:36:55;7.60;99.90
6581;DHT22;3324;50.796;7.228;2023-04-25T03:39:21;7.60;99.90
6581;DHT22;3324;50.796;7.228;2023-04-25T03:41:47;7.60;99.90
6581;DHT22;3324;50.796;7.228;2023-04-25T03:44:13;7.60;99.90
6581;DHT22;3324;50.796;7.228;2023-04-25T03:46:38;7.60;99.90
6581;DHT22;3324;50.796;7.228;2023-04-25T03:49:04;7.50;99.90
6581;DHT22;3324;50.796;7.228;2023-04-25T03:51:30;7.50;99.90
6581;DHT22;3324;50.796;7.228;2023-04-25T03:53:56;7.60;99.90
6581;DHT22;3324;50.796;7.228;2023-04-25T03:56:21;7.50;99.90
6581;DHT22;3324;50.796;7.228;2023-04-25T03:58:47;7.60;99.90
6581;DHT22;3324;50.796;7.228;2023-04-25T04:01:13;7.60;99.90
6581;DHT22;3324;50.796;7.228;2023-04-25T04:03:38;7.60;99.90
6581;DHT22;3324;50.796;7.228;2023-04-25T04:06:04;7.60;99.90
6581;DHT22;3324;50.796;7.228;2023-04-25T04:08:31;7.70;99.90
6581;DHT22;3324;50.796;7.228;2023-04-25T04:10:57;7.70;99.90
6581;DHT22;3324;50.796;7.228;2023-04-25T04:13:27;7.70;99.90
6581;DHT22;3324;50.796;7.228;2023-04-25T04:15:53;7.70;99.90
6581;DHT22;3324;50.796;7.228;2023-04-25T04:18:19;7.70;99.90
6581;DHT22;3324;50.796;7.228;2023-04-25T04:20:45;7.60;99.90
6581;DHT22;3324;50.796;7.228;2023-04-25T04:23:11;7.60;99.90
6581;DHT22;3324;50.796;7.228;2023-04-25T04:25:36;7.70;99.90
6581;DHT22;3324;50.796;7.228;2023-04-25T04:28:03;7.70;99.90
6581;DHT22;3324;50.796;7.228;2023-04-25T04:30:28;7.70;99.90
6581;DHT22;3324;50.796;7.228;2023-04-25T04:32:58;7.70;99.90
6581;DHT22;3324;50.796;7.228;2023-04-25T04:35:24;7.80;99.90
6581;DHT22;3324;50.796;7.228;2023-04-25T04:37:50;7.80;99.90
6581;DHT22;3324;50.796;7.228;2023-04-25T04:40:16;7.90;99.90
6581;DHT22;3324;50.796;7.228;2023-04-25T04:42:43;7.80;99.90
6581;DHT22;3324;50.796;7.228;2023-04-25T04:45:11;7.80;99.90
6581;DHT22;3324;50.796;7.228;2023-04-25T04:47:37;7.80;99.90
6581;DHT22;3324;50.796;7.228;2023-04-25T04:50:08;7.90;99.90
6581;DHT22;3324;50.796;7.228;2023-04-25T04:52:35;7.90;99.90
6581;DHT22;3324;50.796;7.228;2023-04-25T04:55:02;7.90;99.90
6581;DHT22;3324;50.796;7.228;2023-04-25T04:57:28;7.90;99.90
6581;DHT22;3324;50.796;7.228;2023-04-25T04:59:55;8.00;99.90
6581;DHT22;3324;50.796;7.228;2023-04-25T05:02:20;8.10;99.90
6581;DHT22;3324;50.796;7.228;2023-04-25T05:04:46;8.00;99.90
6581;DHT22;3324;50.796;7.228;2023-04-25T05:07:12;8.00;99.90
6581;DHT22;3324;50.796;7.228;2023-04-25T05:09:37;7.90;99.90
6581;DHT22;3324;50.796;7.228;2023-04-25T05:12:03;7.90;99.90
6581;DHT22;3324;50.796;7.228;2023-04-25T05:14:29;7.90;99.90
6581;DHT22;3324;50.796;7.228;2023-04-25T05:16:55;7.90;99.90
6581;DHT22;3324;50.796;7.228;2023-04-25T05:19:20;7.80;99.90
6581;DHT22;3324;50.796;7.228;2023-04-25T05:21:46;7.90;99.90
6581;DHT22;3324;50.796;7.228;2023-04-25T05:24:11;7.90;99.90
6581;DHT22;3324;50.796;7.228;2023-04-25T05:26:37;7.90;99.90
6581;DHT22;3324;50.796;7.228;2023-04-25T05:29:03;7.90;99.90
6581;DHT22;3324;50.796;7.228;2023-04-25T05:31:29;7.90;99.90
6581;DHT22;3324;50.796;7.228;2023-04-25T05:33:54;8.00;99.90
6581;DHT22;3324;50.796;7.228;2023-04-25T05:36:20;8.00;99.90
6581;DHT22;3324;50.796;7.228;2023-04-25T05:38:46;8.10;99.90
6581;DHT22;3324;50.796;7.228;2023-04-25T05:41:12;8.10;99.90
6581;DHT22;3324;50.796;7.228;2023-04-25T05:43:38;8.20;99.90
6581;DHT22;3324;50.796;7.228;2023-04-25T05:46:03;8.20;99.90
6581;DHT22;3324;50.796;7.228;2023-04-25T05:48:29;8.30;99.90
6581;DHT22;3324;50.796;7.228;2023-04-25T05:50:55;8.20;99.90
6581;DHT22;3324;50.796;7.228;2023-04-25T05:53:21;8.30;99.90
6581;DHT22;3324;50.796;7.228;2023-04-25T05:55:47;8.30;99.90
6581;DHT22;3324;50.796;7.228;2023-04-25T05:58:13;8.40;99.90
6581;DHT22;3324;50.796;7.228;2023-04-25T06:00:38;8.50;99.90
6581;DHT22;3324;50.796;7.228;2023-04-25T06:03:07;8.50;99.90
6581;DHT22;3324;50.796;7.228;2023-04-25T06:05:35;8.60;99.90
6581;DHT22;3324;50.796;7.228;2023-04-25T06:08:00;8.70;99.90
6581;DHT22;3324;50.796;7.228;2023-04-25T06:10:26;8.80;99.90
6581;DHT22;3324;50.796;7.228;2023-04-25T06:12:52;8.80;99.90
6581;DHT22;3324;50.796;7.228;2023-04-25T06:15:17;8.80;99.90
6581;DHT22;3324;50.796;7.228;2023-04-25T06:17:43;8.80;99.90
6581;DHT22;3324;50.796;7.228;2023-04-25T06:20:09;8.90;99.90
6581;DHT22;3324;50.796;7.228;2023-04-25T06:22:34;9.00;99.90
6581;DHT22;3324;50.796;7.228;2023-04-25T06:25:00;9.00;99.90
6581;DHT22;3324;50.796;7.228;2023-04-25T06:27:26;9.10;99.90
6581;DHT22;3324;50.796;7.228;2023-04-25T06:29:51;9.20;99.90
6581;DHT22;3324;50.796;7.228;2023-04-25T06:32:17;9.30;99.90
6581;DHT22;3324;50.796;7.228;2023-04-25T06:34:43;9.30;99.90
6581;DHT22;3324;50.796;7.228;2023-04-25T06:37:09;9.40;99.90
6581;DHT22;3324;50.796;7.228;2023-04-25T06:39:35;9.40;99.90
6581;DHT22;3324;50.796;7.228;2023-04-25T06:42:00;9.40;99.90
6581;DHT22;3324;50.796;7.228;2023-04-25T06:44:26;9.40;99.90
6581;DHT22;3324;50.796;7.228;2023-04-25T06:46:52;9.40;99.90
6581;DHT22;3324;50.796;7.228;2023-04-25T06:49:17;9.50;99.90
6581;DHT22;3324;50.796;7.228;2023-04-25T06:51:43;9.50;99.90
6581;DHT22;3324;50.796;7.228;2023-04-25T06:54:08;9.60;99.90
6581;DHT22;3324;50.796;7.228;2023-04-25T06:56:34;9.70;99.90
6581;DHT22;3324;50.796;7.228;2023-04-25T06:59:00;9.80;99.90
6581;DHT22;3324;50.796;7.228;2023-04-25T07:01:26;9.90;99.90
6581;DHT22;3324;50.796;7.228;2023-04-25T07:03:51;10.00;99.90
6581;DHT22;3324;50.796;7.228;2023-04-25T07:06:17;10.00;99.90
6581;DHT22;3324;50.796;7.228;2023-04-25T07:08:42;10.20;99.90
6581;DHT22;3324;50.796;7.228;2023-04-25T07:11:08;10.30;99.90
6581;DHT22;3324;50.796;7.228;2023-04-25T07:13:34;10.40;99.90
6581;DHT22;3324;50.796;7.228;2023-04-25T07:16:00;10.40;99.90
6581;DHT22;3324;50.796;7.228;2023-04-25T07:18:25;10.60;99.90
6581;DHT22;3324;50.796;7.228;2023-04-25T07:20:51;10.70;99.90
6581;DHT22;3324;50.796;7.228;2023-04-25T07:23:16;10.90;99.90
6581;DHT22;3324;50.796;7.228;2023-04-25T07:25:42;11.00;99.90
6581;DHT22;3324;50.796;7.228;2023-04-25T07:28:08;11.10;99.90
6581;DHT22;3324;50.796;7.228;2023-04-25T07:30:33;11.30;99.90
6581;DHT22;3324;50.796;7.228;2023-04-25T07:33:00;11.30;99.90
6581;DHT22;3324;50.796;7.228;2023-04-25T07:35:25;11.20;99.90
6581;DHT22;3324;50.796;7.228;2023-04-25T07:37:51;11.10;99.90
6581;DHT22;3324;50.796;7.228;2023-04-25T07:40:17;11.10;99.90
6581;DHT22;3324;50.796;7.228;2023-04-25T07:42:42;11.20;99.90
6581;DHT22;3324;50.796;7.228;2023-04-25T07:45:08;11.30;99.90
6581;DHT22;3324;50.796;7.228;2023-04-25T07:47:35;11.40;99.90
6581;DHT22;3324;50.796;7.228;2023-04-25T07:50:00;11.40;99.90
6581;DHT22;3324;50.796;7.228;2023-04-25T07:52:26;11.40;99.90
6581;DHT22;3324;50.796;7.228;2023-04-25T07:54:51;11.30;99.90
6581;DHT22;3324;50.796;7.228;2023-04-25T07:57:19;11.30;99.90
6581;DHT22;3324;50.796;7.228;2023-04-25T07:59:45;11.20;99.90
6581;DHT22;3324;50.796;7.228;2023-04-25T08:02:10;11.10;99.90
6581;DHT22;3324;50.796;7.228;2023-04-25T08:04:36;11.00;99.90
6581;DHT22;3324;50.796;7.228;2023-04-25T08:07:02;10.90;99.90
6581;DHT22;3324;50.796;7.228;2023-04-25T08:09:27;10.80;99.90
6581;DHT22;3324;50.796;7.228;2023-04-25T08:11:54;10.80;99.90
6581;DHT22;3324;50.796;7.228;2023-04-25T08:14:20;10.90;99.90
6581;DHT22;3324;50.796;7.228;2023-04-25T08:16:45;10.90;99.90
6581;DHT22;3324;50.796;7.228;2023-04-25T08:19:11;10.90;99.90
6581;DHT22;3324;50.796;7.228;2023-04-25T08:21:37;10.90;99.90
6581;DHT22;3324;50.796;7.228;2023-04-25T08:24:03;10.80;99.90
6581;DHT22;3324;50.796;7.228;2023-04-25T08:26:29;10.90;99.90
6581;DHT22;3324;50.796;7.228;2023-04-25T08:28:55;10.80;99.90
6581;DHT22;3324;50.796;7.228;2023-04-25T08:31:20;10.90;99.90
6581;DHT22;3324;50.796;7.228;2023-04-25T08:33:46;10.90;99.90
6581;DHT22;3324;50.796;7.228;2023-04-25T08:36:12;10.90;99.90
6581;DHT22;3324;50.796;7.228;2023-04-25T08:38:37;11.00;99.90
6581;DHT22;3324;50.796;7.228;2023-04-25T08:41:05;11.10;99.90
6581;DHT22;3324;50.796;7.228;2023-04-25T08:43:32;11.20;99.90
6581;DHT22;3324;50.796;7.228;2023-04-25T08:46:01;11.30;99.90
6581;DHT22;3324;50.796;7.228;2023-04-25T08:48:32;11.20;99.90
6581;DHT22;3324;50.796;7.228;2023-04-25T08:50:58;11.30;99.90
6581;DHT22;3324;50.796;7.228;2023-04-25T08:53:29;11.40;99.90
6581;DHT22;3324;50.796;7.228;2023-04-25T08:55:56;11.40;99.90
6581;DHT22;3324;50.796;7.228;2023-04-25T08:58:22;11.40;99.90
6581;DHT22;3324;50.796;7.228;2023-04-25T09:00:49;11.40;99.90
6581;DHT22;3324;50.796;7.228;2023-04-25T09:03:16;11.20;99.90
6581;DHT22;3324;50.796;7.228;2023-04-25T09:05:42;11.30;99.90
6581;DHT22;3324;50.796;7.228;2023-04-25T09:08:08;11.20;99.90
6581;DHT22;3324;50.796;7.228;2023-04-25T09:10:34;11.10;99.90
6581;DHT22;3324;50.796;7.228;2023-04-25T09:13:04;11.10;99.90
6581;DHT22;3324;50.796;7.228;2023-04-25T09:15:31;11.00;99.90
6581;DHT22;3324;50.796;7.228;2023-04-25T09:17:57;11.00;99.90
6581;DHT22;3324;50.796;7.228;2023-04-25T09:20:23;11.10;99.90
6581;DHT22;3324;50.796;7.228;2023-04-25T09:23:01;11.10;99.90
6581;DHT22;3324;50.796;7.228;2023-04-25T09:25:34;11.20;99.90
6581;DHT22;3324;50.796;7.228;2023-04-25T09:28:04;11.20;99.90
6581;DHT22;3324;50.796;7.228;2023-04-25T09:30:32;11.20;99.90
6581;DHT22;3324;50.796;7.228;2023-04-25T09:33:04;11.10;99.90
6581;DHT22;3324;50.796;7.228;2023-04-25T09:35:38;11.20;99.90
6581;DHT22;3324;50.796;7.228;2023-04-25T09:38:14;11.00;99.90
6581;DHT22;3324;50.796;7.228;2023-04-25T09:40:44;11.10;99.90
6581;DHT22;3324;50.796;7.228;2023-04-25T09:43:30;10.90;99.90
6581;DHT22;3324;50.796;7.228;2023-04-25T09:45:56;10.80;99.90
6581;DHT22;3324;50.796;7.228;2023-04-25T09:48:25;10.80;99.90
6581;DHT22;3324;50.796;7.228;2023-04-25T09:51:10;10.70;99.90
6581;DHT22;3324;50.796;7.228;2023-04-25T09:53:46;10.80;99.90
6581;DHT22;3324;50.796;7.228;2023-04-25T09:56:15;10.70;99.90
6581;DHT22;3324;50.796;7.228;2023-04-25T09:58:41;10.80;99.90
6581;DHT22;3324;50.796;7.228;2023-04-25T10:01:09;10.70;99.90
6581;DHT22;3324;50.796;7.228;2023-04-25T10:03:37;10.70;99.90
6581;DHT22;3324;50.796;7.228;2023-04-25T10:06:11;10.80;99.90
6581;DHT22;3324;50.796;7.228;2023-04-25T10:08:38;10.80;99.90
6581;DHT22;3324;50.796;7.228;2023-04-25T10:11:06;10.80;99.90
6581;DHT22;3324;50.796;7.228;2023-04-25T10:13:33;11.00;99.90
6581;DHT22;3324;50.796;7.228;2023-04-25T10:16:01;11.00;99.90
6581;DHT22;3324;50.796;7.228;2023-04-25T10:18:28;11.10;99.90
6581;DHT22;3324;50.796;7.228;2023-04-25T10:20:55;11.20;99.90
6581;DHT22;3324;50.796;7.228;2023-04-25T10:23:21;11.40;99.90
6581;DHT22;3324;50.796;7.228;2023-04-25T10:25:48;11.40;99.90
6581;DHT22;3324;50.796;7.228;2023-04-25T10:28:14;11.50;99.90
6581;DHT22;3324;50.796;7.228;2023-04-25T10:31:03;11.60;99.90
6581;DHT22;3324;50.796;7.228;2023-04-25T10:33:33;11.70;99.90
6581;DHT22;3324;50.796;7.228;2023-04-25T10:36:17;11.80;99.90
6581;DHT22;3324;50.796;7.228;2023-04-25T10:38:44;11.80;99.90
6581;DHT22;3324;50.796;7.228;2023-04-25T10:41:11;11.90;99.90
6581;DHT22;3324;50.796;7.228;2023-04-25T10:43:42;11.90;99.90
6581;DHT22;3324;50.796;7.228;2023-04-25T10:46:24;11.90;99.90
6581;DHT22;3324;50.796;7.228;2023-04-25T10:48:59;11.80;99.90
6581;DHT22;3324;50.796;7.228;2023-04-25T10:51:30;11.60;99.90
6581;DHT22;3324;50.796;7.228;2023-04-25T10:54:02;11.40;99.90
6581;DHT22;3324;50.796;7.228;2023-04-25T10:56:30;11.30;99.90
6581;DHT22;3324;50.796;7.228;2023-04-25T10:59:07;11.20;99.90
6581;DHT22;3324;50.796;7.228;2023-04-25T11:01:40;11.10;99.90
6581;DHT22;3324;50.796;7.228;2023-04-25T11:04:25;11.10;99.90
6581;DHT22;3324;50.796;7.228;2023-04-25T11:09:28;11.10;99.90
6581;DHT22;3324;50.796;7.228;2023-04-25T11:11:57;11.20;99.90
6581;DHT22;3324;50.796;7.228;2023-04-25T11:14:24;11.30;99.90
6581;DHT22;3324;50.796;7.228;2023-04-25T11:16:53;11.40;99.90
6581;DHT22;3324;50.796;7.228;2023-04-25T11:19:21;11.40;99.90
6581;DHT22;3324;50.796;7.228;2023-04-25T11:21:47;11.50;99.90
6581;DHT22;3324;50.796;7.228;2023-04-25T11:24:13;11.50;99.90
6581;DHT22;3324;50.796;7.228;2023-04-25T11:26:40;11.70;99.90
6581;DHT22;3324;50.796;7.228;2023-04-25T11:29:06;12.30;99.90
6581;DHT22;3324;50.796;7.228;2023-04-25T11:31:32;12.70;99.90
6581;DHT22;3324;50.796;7.228;2023-04-25T11:33:57;13.00;99.90
6581;DHT22;3324;50.796;7.228;2023-04-25T11:36:24;13.20;99.90
6581;DHT22;3324;50.796;7.228;2023-04-25T11:38:51;13.10;99.90
6581;DHT22;3324;50.796;7.228;2023-04-25T11:41:18;13.00;99.90
6581;DHT22;3324;50.796;7.228;2023-04-25T11:43:44;12.90;99.90
6581;DHT22;3324;50.796;7.228;2023-04-25T11:46:09;12.70;99.90
6581;DHT22;3324;50.796;7.228;2023-04-25T11:48:42;12.60;99.90
6581;DHT22;3324;50.796;7.228;2023-04-25T11:51:08;12.40;99.90
6581;DHT22;3324;50.796;7.228;2023-04-25T11:53:34;12.30;99.90
6581;DHT22;3324;50.796;7.228;2023-04-25T11:56:00;12.20;99.90
6581;DHT22;3324;50.796;7.228;2023-04-25T11:58:26;12.10;99.90
6581;DHT22;3324;50.796;7.228;2023-04-25T12:00:52;12.10;99.90
6581;DHT22;3324;50.796;7.228;2023-04-25T12:03:18;12.10;99.90
6581;DHT22;3324;50.796;7.228;2023-04-25T12:05:45;12.00;99.90
6581;DHT22;3324;50.796;7.228;2023-04-25T12:08:12;12.00;99.90
6581;DHT22;3324;50.796;7.228;2023-04-25T12:10:40;12.10;99.90
6581;DHT22;3324;50.796;7.228;2023-04-25T12:13:23;12.10;99.90
6581;DHT22;3324;50.796;7.228;2023-04-25T12:15:49;12.20;99.90
6581;DHT22;3324;50.796;7.228;2023-04-25T12:18:18;12.20;99.90
6581;DHT22;3324;50.796;7.228;2023-04-25T12:20:43;12.30;99.90
6581;DHT22;3324;50.796;7.228;2023-04-25T12:23:09;12.30;99.90
6581;DHT22;3324;50.796;7.228;2023-04-25T12:25:41;12.40;99.90
6581;DHT22;3324;50.796;7.228;2023-04-25T12:28:18;12.60;99.90
6581;DHT22;3324;50.796;7.228;2023-04-25T12:30:56;13.00;99.90
6581;DHT22;3324;50.796;7.228;2023-04-25T12:33:24;13.40;99.90
6581;DHT22;3324;50.796;7.228;2023-04-25T12:35:49;13.80;99.90
6581;DHT22;3324;50.796;7.228;2023-04-25T12:38:29;14.10;99.90
6581;DHT22;3324;50.796;7.228;2023-04-25T12:40:56;14.50;99.90
6581;DHT22;3324;50.796;7.228;2023-04-25T12:43:22;14.70;99.90
6581;DHT22;3324;50.796;7.228;2023-04-25T12:45:52;14.60;99.90
6581;DHT22;3324;50.796;7.228;2023-04-25T12:48:18;14.50;99.90
6581;DHT22;3324;50.796;7.228;2023-04-25T12:50:44;14.60;99.90
6581;DHT22;3324;50.796;7.228;2023-04-25T12:53:10;14.80;99.90
6581;DHT22;3324;50.796;7.228;2023-04-25T12:55:37;14.70;99.90
6581;DHT22;3324;50.796;7.228;2023-04-25T12:58:02;14.60;99.90
6581;DHT22;3324;50.796;7.228;2023-04-25T13:00:29;14.70;99.90
6581;DHT22;3324;50.796;7.228;2023-04-25T13:02:55;14.80;99.90
6581;DHT22;3324;50.796;7.228;2023-04-25T13:05:21;15.00;99.90
6581;DHT22;3324;50.796;7.228;2023-04-25T13:07:46;15.50;99.70
6581;DHT22;3324;50.796;7.228;2023-04-25T13:10:12;15.70;99.20
6581;DHT22;3324;50.796;7.228;2023-04-25T13:12:38;15.60;98.00
6581;DHT22;3324;50.796;7.228;2023-04-25T13:15:04;15.40;98.30
6581;DHT22;3324;50.796;7.228;2023-04-25T13:17:29;15.30;99.20
6581;DHT22;3324;50.796;7.228;2023-04-25T13:19:55;15.10;99.90
6581;DHT22;3324;50.796;7.228;2023-04-25T13:22:21;14.80;99.90
6581;DHT22;3324;50.796;7.228;2023-04-25T13:24:46;14.60;99.70
6581;DHT22;3324;50.796;7.228;2023-04-25T13:27:13;14.40;99.90
6581;DHT22;3324;50.796;7.228;2023-04-25T13:29:38;14.20;99.40
6581;DHT22;3324;50.796;7.228;2023-04-25T13:32:06;14.10;98.70
6581;DHT22;3324;50.796;7.228;2023-04-25T13:34:32;14.00;99.00
6581;DHT22;3324;50.796;7.228;2023-04-25T13:36:57;14.00;99.70
6581;DHT22;3324;50.796;7.228;2023-04-25T13:39:23;13.90;99.90
6581;DHT22;3324;50.796;7.228;2023-04-25T13:41:49;13.80;99.90
6581;DHT22;3324;50.796;7.228;2023-04-25T13:44:14;13.70;99.90
6581;DHT22;3324;50.796;7.228;2023-04-25T13:46:40;13.70;99.90
6581;DHT22;3324;50.796;7.228;2023-04-25T13:49:06;13.60;99.90
6581;DHT22;3324;50.796;7.228;2023-04-25T13:51:31;13.60;99.90
6581;DHT22;3324;50.796;7.228;2023-04-25T13:53:57;13.50;99.90
6581;DHT22;3324;50.796;7.228;2023-04-25T13:56:23;13.40;99.90
6581;DHT22;3324;50.796;7.228;2023-04-25T13:58:51;13.20;99.90
6581;DHT22;3324;50.796;7.228;2023-04-25T14:01:17;13.30;99.90
6581;DHT22;3324;50.796;7.228;2023-04-25T14:03:43;13.30;99.90
6581;DHT22;3324;50.796;7.228;2023-04-25T14:06:08;13.20;99.90
6581;DHT22;3324;50.796;7.228;2023-04-25T14:08:34;13.10;99.90
6581;DHT22;3324;50.796;7.228;2023-04-25T14:11:00;13.10;99.90
6581;DHT22;3324;50.796;7.228;2023-04-25T14:13:26;13.00;99.90
6581;DHT22;3324;50.796;7.228;2023-04-25T14:15:52;13.10;99.90
6581;DHT22;3324;50.796;7.228;2023-04-25T14:18:18;13.00;99.90
6581;DHT22;3324;50.796;7.228;2023-04-25T14:20:45;13.00;99.90
6581;DHT22;3324;50.796;7.228;2023-04-25T14:23:11;13.30;99.90
6581;DHT22;3324;50.796;7.228;2023-04-25T14:25:36;13.50;99.90
6581;DHT22;3324;50.796;7.228;2023-04-25T14:28:03;13.70;98.70
6581;DHT22;3324;50.796;7.228;2023-04-25T14:30:29;13.90;98.90
6581;DHT22;3324;50.796;7.228;2023-04-25T14:32:54;14.10;99.30
6581;DHT22;3324;50.796;7.228;2023-04-25T14:35:20;14.30;96.70
6581;DHT22;3324;50.796;7.228;2023-04-25T14:37:46;14.40;97.70
6581;DHT22;3324;50.796;7.228;2023-04-25T14:40:13;14.60;97.00
6581;DHT22;3324;50.796;7.228;2023-04-25T14:42:40;14.70;97.60
6581;DHT22;3324;50.796;7.228;2023-04-25T14:45:07;14.70;97.00
6581;DHT22;3324;50.796;7.228;2023-04-25T14:47:34;14.60;95.30
6581;DHT22;3324;50.796;7.228;2023-04-25T14:50:00;14.60;95.90
6581;DHT22;3324;50.796;7.228;2023-04-25T14:52:27;14.60;97.90
6581;DHT22;3324;50.796;7.228;2023-04-25T14:54:53;14.70;95.70
6581;DHT22;3324;50.796;7.228;2023-04-25T14:57:19;14.70;96.60
6581;DHT22;3324;50.796;7.228;2023-04-25T14:59:44;14.70;97.20
6581;DHT22;3324;50.796;7.228;2023-04-25T15:02:11;14.60;95.90
6581;DHT22;3324;50.796;7.228;2023-04-25T15:04:36;14.60;93.50
6581;DHT22;3324;50.796;7.228;2023-04-25T15:07:02;14.40;95.30
6581;DHT22;3324;50.796;7.228;2023-04-25T15:09:28;14.30;95.80
6581;DHT22;3324;50.796;7.228;2023-04-25T15:11:53;14.20;94.10
6581;DHT22;3324;50.796;7.228;2023-04-25T15:14:19;14.00;98.10
6581;DHT22;3324;50.796;7.228;2023-04-25T15:16:45;13.80;98.70
6581;DHT22;3324;50.796;7.228;2023-04-25T15:19:12;13.80;99.90
6581;DHT22;3324;50.796;7.228;2023-04-25T15:21:39;13.70;99.90
6581;DHT22;3324;50.796;7.228;2023-04-25T15:24:05;13.60;99.90
6581;DHT22;3324;50.796;7.228;2023-04-25T15:26:30;13.40;99.90
6581;DHT22;3324;50.796;7.228;2023-04-25T15:28:56;13.30;99.90
6581;DHT22;3324;50.796;7.228;2023-04-25T15:31:22;13.30;99.90
6581;DHT22;3324;50.796;7.228;2023-04-25T15:33:48;13.40;99.90
6581;DHT22;3324;50.796;7.228;2023-04-25T15:36:13;13.50;99.90
6581;DHT22;3324;50.796;7.228;2023-04-25T15:38:41;13.50;99.90
6581;DHT22;3324;50.796;7.228;2023-04-25T15:41:07;13.50;99.90
6581;DHT22;3324;50.796;7.228;2023-04-25T15:43:32;13.50;97.30
6581;DHT22;3324;50.796;7.228;2023-04-25T15:46:01;13.40;98.60
6581;DHT22;3324;50.796;7.228;2023-04-25T15:48:26;13.50;98.50
6581;DHT22;3324;50.796;7.228;2023-04-25T15:50:53;13.40;96.60
6581;DHT22;3324;50.796;7.228;2023-04-25T15:53:18;13.30;97.40
6581;DHT22;3324;50.796;7.228;2023-04-25T15:55:44;13.20;96.40
6581;DHT22;3324;50.796;7.228;2023-04-25T15:58:09;13.10;97.60
6581;DHT22;3324;50.796;7.228;2023-04-25T16:00:35;13.10;97.50
6581;DHT22;3324;50.796;7.228;2023-04-25T16:03:02;13.10;96.90
6581;DHT22;3324;50.796;7.228;2023-04-25T16:05:28;13.00;97.90
6581;DHT22;3324;50.796;7.228;2023-04-25T16:07:54;13.00;98.90